Time;durP1;ratioP1;P1;durP2;ratioP2;P2;SDS_P1;SDS_P2;PMS_P1;PMS_P2;Temp;Humidity;BMP_temperature;BMP_pressure;BME280_temperature;BME280_humidity;BME280_pressure;Samples;Min_cycle;Max_cycle;Signal;HPM_P1;HPM_P2
2021/06/24 00:01:18;;;;;;;11.23;10.10;;;20.30;99.90;;;;;;5098936;28;20714;-54
2021/06/24 00:03:45;;;;;;;10.97;9.87;;;20.20;99.90;;;;;;5100116;28;20527;-51
2021/06/24 00:06:12;;;;;;;10.03;8.97;;;20.30;99.90;;;;;;5095605;28;20417;-56
2021/06/24 00:08:39;;;;;;;9.60;8.80;;;20.20;99.90;;;;;;5096219;28;20497;-55
2021/06/24 00:11:09;;;;;;;11.13;10.13;;;20.20;99.90;;;;;;5097045;28;20768;-56
2021/06/24 00:13:38;;;;;;;13.03;9.47;;;20.20;99.90;;;;;;5098258;28;20443;-52
2021/06/24 00:16:06;;;;;;;13.20;10.03;;;20.20;99.90;;;;;;5098872;28;20453;-54
2021/06/24 00:18:34;;;;;;;11.33;10.23;;;20.20;99.90;;;;;;5096751;28;20448;-53
2021/06/24 00:21:01;;;;;;;10.30;9.27;;;20.30;99.90;;;;;;5097825;28;20795;-55
2021/06/24 00:23:28;;;;;;;11.37;10.17;;;20.30;99.90;;;;;;5096721;28;20532;-55
2021/06/24 00:25:56;;;;;;;16.13;11.30;;;20.30;99.90;;;;;;5099071;28;20699;-53
2021/06/24 00:28:26;;;;;;;10.87;9.77;;;20.30;99.90;;;;;;5099008;28;20444;-54
2021/06/24 00:30:55;;;;;;;10.87;9.70;;;20.30;99.90;;;;;;5097725;28;20801;-54
2021/06/24 00:33:23;;;;;;;8.80;8.10;;;20.30;99.90;;;;;;5098410;28;20441;-56
2021/06/24 00:35:50;;;;;;;10.40;9.20;;;20.30;99.90;;;;;;5094308;28;20417;-55
2021/06/24 00:38:18;;;;;;;11.30;9.63;;;20.20;99.90;;;;;;5094596;28;20633;-51
2021/06/24 00:40:45;;;;;;;13.30;11.00;;;20.20;99.90;;;;;;5098884;28;20837;-55
2021/06/24 00:43:14;;;;;;;14.63;9.20;;;20.20;99.90;;;;;;5097324;28;20435;-53
2021/06/24 00:45:42;;;;;;;10.60;9.43;;;20.20;99.90;;;;;;5097706;28;20463;-54
2021/06/24 00:48:09;;;;;;;11.53;10.07;;;20.30;99.90;;;;;;5098291;28;20417;-55
2021/06/24 00:50:39;;;;;;;11.40;8.10;;;20.50;99.90;;;;;;5097169;28;21090;-56
2021/06/24 00:53:07;;;;;;;12.93;10.50;;;20.90;99.90;;;;;;5095583;28;20416;-55
2021/06/24 00:55:40;;;;;;;12.27;10.50;;;20.60;99.90;;;;;;5094189;28;20418;-56
2021/06/24 00:58:12;;;;;;;10.83;9.90;;;20.50;99.90;;;;;;5098861;28;20421;-52
2021/06/24 01:00:41;;;;;;;10.07;9.00;;;21.40;99.90;;;;;;5096387;28;20496;-54
2021/06/24 01:03:09;;;;;;;10.10;9.17;;;20.70;99.90;;;;;;5096818;28;20441;-55
2021/06/24 01:05:37;;;;;;;8.40;7.67;;;20.80;99.90;;;;;;5097742;28;20452;-55
2021/06/24 01:08:10;;;;;;;9.77;8.80;;;21.20;99.90;;;;;;5092944;28;20439;-52
2021/06/24 01:10:38;;;;;;;9.97;8.53;;;21.10;99.90;;;;;;5096531;28;20643;-52
2021/06/24 01:13:05;;;;;;;10.73;9.40;;;20.90;99.90;;;;;;5096226;28;20517;-52
2021/06/24 01:15:33;;;;;;;24.90;14.80;;;20.50;99.90;;;;;;5098273;28;20425;-61
2021/06/24 01:18:01;;;;;;;19.20;15.17;;;19.80;99.90;;;;;;5098050;28;20442;-58
2021/06/24 01:20:34;;;;;;;20.43;17.10;;;18.60;99.90;;;;;;5095263;28;20450;-60
2021/06/24 01:23:02;;;;;;;24.17;15.23;;;18.80;99.90;;;;;;5096897;28;20471;-60
2021/06/24 01:25:30;;;;;;;21.67;15.20;;;18.60;99.90;;;;;;5090353;28;20539;-54
2021/06/24 01:27:59;;;;;;;18.73;15.40;;;18.50;99.90;;;;;;5091027;28;20459;-51
2021/06/24 01:30:27;;;;;;;20.83;16.53;;;18.40;99.90;;;;;;5096250;28;20451;-52
2021/06/24 01:32:55;;;;;;;20.73;14.40;;;18.60;99.90;;;;;;5093775;28;20651;-54
2021/06/24 01:35:24;;;;;;;13.13;11.77;;;18.70;99.90;;;;;;5096108;28;20523;-53
2021/06/24 01:38:06;;;;;;;13.13;11.03;;;18.90;99.90;;;;;;5088505;28;20808;-53
2021/06/24 01:40:35;;;;;;;10.93;9.83;;;19.00;99.90;;;;;;5091024;28;20772;-54
2021/06/24 01:43:03;;;;;;;9.53;8.53;;;18.90;99.90;;;;;;5080982;28;20524;-56
2021/06/24 01:45:32;;;;;;;14.93;7.73;;;18.90;99.90;;;;;;5094927;28;20460;-54
2021/06/24 01:47:59;;;;;;;10.80;8.67;;;19.40;99.90;;;;;;5086935;28;20417;-54
2021/06/24 01:50:26;;;;;;;9.57;7.90;;;18.40;99.90;;;;;;5076104;28;20457;-55
2021/06/24 01:52:54;;;;;;;12.07;7.80;;;18.30;99.90;;;;;;5086953;28;20427;-55
2021/06/24 01:55:34;;;;;;;10.63;5.30;;;18.30;99.90;;;;;;5080628;28;21017;-54
2021/06/24 01:58:06;;;;;;;5.27;4.77;;;18.20;99.90;;;;;;5085531;28;20442;-55
2021/06/24 02:00:34;;;;;;;5.17;4.50;;;18.00;99.90;;;;;;5090967;28;20749;-55
2021/06/24 02:03:01;;;;;;;6.97;6.27;;;18.00;99.90;;;;;;5086862;28;20426;-58
2021/06/24 02:05:28;;;;;;;7.97;5.90;;;18.00;99.90;;;;;;5092633;28;20827;-55
2021/06/24 02:07:55;;;;;;;9.17;6.10;;;18.10;99.90;;;;;;5095709;28;20460;-53
2021/06/24 02:10:22;;;;;;;5.80;5.20;;;18.20;99.90;;;;;;5093909;28;20686;-56
2021/06/24 02:12:50;;;;;;;6.73;6.13;;;18.30;99.90;;;;;;5089375;28;20620;-56
2021/06/24 02:15:17;;;;;;;12.10;6.77;;;18.50;99.90;;;;;;5089543;28;20423;-57
2021/06/24 02:17:45;;;;;;;12.63;6.37;;;18.60;99.90;;;;;;5095095;28;20443;-52
2021/06/24 02:20:15;;;;;;;7.83;5.73;;;18.10;99.90;;;;;;5082597;28;20505;-55
2021/06/24 02:22:43;;;;;;;7.07;5.93;;;17.70;99.90;;;;;;5082673;28;20445;-54
2021/06/24 02:25:13;;;;;;;8.13;7.43;;;17.50;99.90;;;;;;5093915;28;20779;-52
2021/06/24 02:27:41;;;;;;;19.40;9.47;;;17.30;99.90;;;;;;5087480;28;20611;-56
2021/06/24 02:30:10;;;;;;;14.80;11.63;;;17.30;99.90;;;;;;5085203;28;20484;-55
2021/06/24 02:32:38;;;;;;;16.67;12.90;;;17.30;99.90;;;;;;5081069;28;20696;-53
2021/06/24 02:35:07;;;;;;;15.07;13.40;;;17.30;99.90;;;;;;5092180;28;20420;-56
2021/06/24 02:37:35;;;;;;;14.10;11.67;;;17.20;99.90;;;;;;5095863;28;20486;-54
2021/06/24 02:40:03;;;;;;;18.17;15.17;;;17.20;99.90;;;;;;5079233;28;20413;-57
2021/06/24 02:42:31;;;;;;;11.53;10.33;;;17.20;99.90;;;;;;5086953;28;20426;-59
2021/06/24 02:44:58;;;;;;;8.23;7.40;;;17.10;99.90;;;;;;5087152;28;20490;-58
2021/06/24 02:47:25;;;;;;;9.13;8.30;;;17.20;99.90;;;;;;5092592;28;20446;-59
2021/06/24 02:49:52;;;;;;;7.50;6.43;;;17.20;99.90;;;;;;5081579;28;20783;-59
2021/06/24 02:52:19;;;;;;;7.50;6.80;;;17.20;99.90;;;;;;5093678;28;20437;-58
2021/06/24 02:54:46;;;;;;;12.00;7.17;;;17.20;99.90;;;;;;5083351;28;20504;-59
2021/06/24 02:57:13;;;;;;;10.50;9.30;;;17.30;99.90;;;;;;5095696;28;20439;-56
2021/06/24 02:59:40;;;;;;;7.07;6.47;;;17.30;99.90;;;;;;5091929;28;20567;-59
2021/06/24 03:02:07;;;;;;;7.70;6.90;;;17.30;99.90;;;;;;5094645;28;20746;-57
2021/06/24 03:04:34;;;;;;;8.97;7.07;;;17.30;99.90;;;;;;5084754;28;20488;-56
2021/06/24 03:07:02;;;;;;;7.80;7.10;;;17.30;99.90;;;;;;5085086;28;20445;-59
2021/06/24 03:09:29;;;;;;;9.10;7.20;;;17.30;99.90;;;;;;5096203;28;20425;-59
2021/06/24 03:11:56;;;;;;;10.20;8.57;;;17.30;99.90;;;;;;5089315;28;20776;-60
2021/06/24 03:14:23;;;;;;;10.80;9.30;;;17.40;99.90;;;;;;5089003;28;20628;-57
2021/06/24 03:16:51;;;;;;;10.87;9.03;;;17.40;99.90;;;;;;5094845;28;20461;-56
2021/06/24 03:19:19;;;;;;;10.10;9.10;;;17.50;99.90;;;;;;5088818;28;20454;-58
2021/06/24 03:21:46;;;;;;;10.33;8.90;;;17.50;99.90;;;;;;5095702;28;20817;-59
2021/06/24 03:24:13;;;;;;;10.63;9.00;;;17.60;99.90;;;;;;5096736;28;20841;-62
2021/06/24 03:26:41;;;;;;;8.10;7.30;;;17.90;99.90;;;;;;5098629;28;20415;-58
2021/06/24 03:29:08;;;;;;;9.40;8.47;;;17.80;99.90;;;;;;5099806;28;20416;-59
2021/06/24 03:31:35;;;;;;;11.03;7.10;;;17.90;99.90;;;;;;5098911;28;20623;-59
2021/06/24 03:34:03;;;;;;;7.80;7.07;;;18.00;99.90;;;;;;5091482;28;20445;-59
2021/06/24 03:36:30;;;;;;;7.00;6.30;;;17.90;99.90;;;;;;5085227;28;20450;-64
2021/06/24 03:38:57;;;;;;;11.67;6.80;;;17.80;99.90;;;;;;5088556;28;20423;-59
2021/06/24 03:41:25;;;;;;;6.20;5.60;;;17.90;99.90;;;;;;5098741;28;20475;-60
2021/06/24 03:43:54;;;;;;;8.67;7.97;;;18.40;99.90;;;;;;5088064;28;20450;-58
2021/06/24 03:46:23;;;;;;;7.27;6.60;;;18.20;99.90;;;;;;5088477;28;20505;-58
2021/06/24 03:48:51;;;;;;;8.20;7.37;;;18.20;99.90;;;;;;5081700;28;20428;-59
2021/06/24 03:51:19;;;;;;;13.60;7.93;;;18.30;99.90;;;;;;5091935;28;20418;-60
2021/06/24 03:53:46;;;;;;;9.63;7.60;;;18.00;99.90;;;;;;5087645;28;20406;-59
2021/06/24 03:56:13;;;;;;;8.53;7.73;;;17.80;99.90;;;;;;5091813;28;20669;-58
2021/06/24 03:58:40;;;;;;;14.70;9.47;;;17.70;99.90;;;;;;5094034;28;20469;-57
2021/06/24 04:01:07;;;;;;;9.93;8.90;;;17.70;99.90;;;;;;5087924;28;20446;-59
2021/06/24 04:03:34;;;;;;;9.77;8.77;;;17.80;99.90;;;;;;5087363;28;20830;-60
2021/06/24 04:06:02;;;;;;;10.60;9.67;;;18.00;99.90;;;;;;5083397;28;20458;-59
2021/06/24 04:08:29;;;;;;;10.67;9.63;;;18.10;99.90;;;;;;5082433;28;20787;-58
2021/06/24 04:11:16;;;;;;;13.77;9.87;;;17.90;99.90;;;;;;5098051;28;20396;-57
2021/06/24 04:13:46;;;;;;;11.00;9.97;;;17.80;99.90;;;;;;5094391;28;20453;-58
2021/06/24 04:16:21;;;;;;;13.40;12.03;;;17.90;99.90;;;;;;5095838;28;20517;-59
2021/06/24 04:18:53;;;;;;;11.10;9.97;;;18.00;99.90;;;;;;5093475;28;20516;-60
2021/06/24 04:21:20;;;;;;;14.67;11.60;;;18.10;99.90;;;;;;5097807;28;20413;-58
2021/06/24 04:23:47;;;;;;;12.93;10.60;;;17.90;99.90;;;;;;5098086;28;20478;-56
2021/06/24 04:26:14;;;;;;;14.30;9.30;;;18.20;99.90;;;;;;5095902;28;20463;-56
2021/06/24 04:28:41;;;;;;;12.30;11.10;;;18.10;99.90;;;;;;5095364;28;20628;-58
2021/06/24 04:31:08;;;;;;;11.37;10.23;;;18.00;99.90;;;;;;5097412;28;20548;-59
2021/06/24 04:33:36;;;;;;;12.53;8.80;;;18.10;99.90;;;;;;5094293;28;20401;-58
2021/06/24 04:36:03;;;;;;;13.70;8.97;;;17.00;99.90;;;;;;5082215;28;20682;-58
2021/06/24 04:38:31;;;;;;;15.60;8.37;;;17.90;99.90;;;;;;5084675;28;20446;-58
2021/06/24 04:40:58;;;;;;;9.03;7.37;;;18.00;99.90;;;;;;5098176;28;20730;-58
2021/06/24 04:43:25;;;;;;;10.07;7.50;;;18.10;99.90;;;;;;5083987;28;20421;-58
2021/06/24 04:45:52;;;;;;;8.43;7.53;;;18.20;99.90;;;;;;5085099;28;20532;-58
2021/06/24 04:48:19;;;;;;;6.33;5.73;;;18.10;99.90;;;;;;5079700;28;20439;-56
2021/06/24 04:50:46;;;;;;;11.50;6.60;;;18.20;99.90;;;;;;5088741;28;20427;-55
2021/06/24 04:53:14;;;;;;;9.50;6.57;;;18.00;99.90;;;;;;5091081;28;20455;-58
2021/06/24 04:55:41;;;;;;;6.50;5.67;;;18.00;99.90;;;;;;5090021;28;20432;-57
2021/06/24 04:58:09;;;;;;;12.60;6.20;;;18.10;99.90;;;;;;5100313;28;20661;-59
2021/06/24 05:00:37;;;;;;;7.20;4.83;;;18.00;99.90;;;;;;5091439;28;20421;-57
2021/06/24 05:03:05;;;;;;;9.47;6.30;;;18.10;99.90;;;;;;5095759;28;20761;-57
2021/06/24 05:05:33;;;;;;;7.17;5.20;;;18.30;99.90;;;;;;5094778;28;20456;-58
2021/06/24 05:08:07;;;;;;;6.40;4.70;;;18.50;99.90;;;;;;5088345;28;20442;-57
2021/06/24 05:10:34;;;;;;;6.57;5.17;;;18.40;99.90;;;;;;5083378;28;20732;-57
2021/06/24 05:13:01;;;;;;;9.90;6.50;;;18.70;99.90;;;;;;5094059;28;20506;-56
2021/06/24 05:15:33;;;;;;;6.80;4.63;;;18.60;99.90;;;;;;5094801;28;20766;-59
2021/06/24 05:18:05;;;;;;;4.03;3.60;;;18.80;99.90;;;;;;5094790;28;20426;-56
2021/06/24 05:20:32;;;;;;;4.57;4.17;;;19.00;99.90;;;;;;5095140;28;20519;-56
2021/06/24 05:22:59;;;;;;;3.90;3.50;;;19.30;99.90;;;;;;5094157;28;20444;-56
2021/06/24 05:25:26;;;;;;;4.40;4.00;;;19.50;99.90;;;;;;5095834;28;20477;-59
2021/06/24 05:27:54;;;;;;;6.17;4.20;;;19.70;99.90;;;;;;5095553;28;20438;-56
2021/06/24 05:30:21;;;;;;;4.97;3.93;;;19.60;99.90;;;;;;5095945;28;20522;-57
2021/06/24 05:32:48;;;;;;;3.90;3.60;;;19.80;99.90;;;;;;5096213;28;20421;-56
2021/06/24 05:35:15;;;;;;;4.37;3.83;;;20.20;99.90;;;;;;5086116;28;20422;-57
2021/06/24 05:37:42;;;;;;;3.40;3.10;;;20.30;99.90;;;;;;5093889;28;20448;-58
2021/06/24 05:40:10;;;;;;;3.90;3.53;;;20.40;99.90;;;;;;5093967;28;20475;-56
2021/06/24 05:42:37;;;;;;;4.07;3.77;;;20.40;99.90;;;;;;5084956;28;20470;-55
2021/06/24 05:45:05;;;;;;;4.00;3.60;;;20.40;99.90;;;;;;5075489;28;20806;-55
2021/06/24 05:47:32;;;;;;;5.00;3.70;;;20.30;99.90;;;;;;5082575;28;20486;-56
2021/06/24 05:50:01;;;;;;;6.00;3.83;;;20.50;99.90;;;;;;5082302;28;20677;-57
2021/06/24 05:52:28;;;;;;;5.40;4.90;;;20.50;99.90;;;;;;5068734;28;20776;-57
2021/06/24 05:54:55;;;;;;;5.20;3.50;;;20.50;99.90;;;;;;5094922;28;20439;-56
2021/06/24 05:57:22;;;;;;;3.73;3.27;;;20.40;99.90;;;;;;5096379;28;20439;-57
2021/06/24 05:59:49;;;;;;;4.30;3.20;;;20.40;99.90;;;;;;5098484;28;20417;-55
2021/06/24 06:02:17;;;;;;;6.70;4.47;;;20.40;99.90;;;;;;5095359;28;20420;-57
2021/06/24 06:04:44;;;;;;;3.73;3.33;;;20.50;99.90;;;;;;5093121;28;21684;-57
2021/06/24 06:07:11;;;;;;;3.97;3.30;;;20.60;99.90;;;;;;5091121;28;20648;-58
2021/06/24 06:09:38;;;;;;;3.90;3.60;;;20.70;99.90;;;;;;5095715;28;20723;-57
2021/06/24 06:12:06;;;;;;;3.73;3.43;;;20.90;99.90;;;;;;5079851;28;20418;-57
2021/06/24 06:14:33;;;;;;;8.03;3.80;;;20.90;99.90;;;;;;5079763;28;20443;-56
2021/06/24 06:17:00;;;;;;;3.47;3.20;;;20.70;99.90;;;;;;5083408;28;20409;-56
2021/06/24 06:19:27;;;;;;;9.20;4.97;;;20.60;99.90;;;;;;5081495;28;20450;-56
2021/06/24 06:21:55;;;;;;;5.87;3.93;;;20.60;99.90;;;;;;5089649;28;20433;-55
2021/06/24 06:24:22;;;;;;;4.97;4.47;;;20.70;99.90;;;;;;5094388;28;20406;-55
2021/06/24 06:26:49;;;;;;;9.73;4.67;;;20.70;99.90;;;;;;5090052;28;20751;-55
2021/06/24 06:29:16;;;;;;;4.57;4.10;;;20.90;99.90;;;;;;5092792;28;20425;-56
2021/06/24 06:31:43;;;;;;;5.40;4.40;;;20.80;99.90;;;;;;5086099;28;20878;-54
2021/06/24 06:34:11;;;;;;;5.17;4.70;;;20.80;99.90;;;;;;5086270;28;20472;-57
2021/06/24 06:36:38;;;;;;;4.63;4.13;;;21.10;99.90;;;;;;5095031;28;20495;-57
2021/06/24 06:39:05;;;;;;;5.97;4.40;;;21.40;99.90;;;;;;5096576;28;20417;-56
2021/06/24 06:41:32;;;;;;;4.20;3.80;;;21.60;99.90;;;;;;5093521;28;20550;-58
2021/06/24 06:43:59;;;;;;;3.97;3.63;;;21.60;99.90;;;;;;5082688;28;20955;-58
2021/06/24 06:46:26;;;;;;;5.40;4.90;;;21.90;99.90;;;;;;5081742;28;20473;-58
2021/06/24 06:48:54;;;;;;;7.30;4.70;;;22.00;99.90;;;;;;5081982;28;20467;-57
2021/06/24 06:51:23;;;;;;;4.33;3.93;;;21.80;99.90;;;;;;5095994;28;20506;-57
2021/06/24 06:53:51;;;;;;;5.77;3.73;;;22.00;99.90;;;;;;5094142;28;20754;-56
2021/06/24 06:56:18;;;;;;;4.33;3.93;;;22.20;99.90;;;;;;5096046;28;20606;-57
2021/06/24 06:58:46;;;;;;;5.50;4.40;;;22.40;99.90;;;;;;5094798;28;20499;-58
2021/06/24 07:01:13;;;;;;;4.23;3.83;;;22.60;99.90;;;;;;5081582;28;20729;-57
2021/06/24 07:03:40;;;;;;;4.17;3.80;;;22.50;99.90;;;;;;5096627;28;20449;-58
2021/06/24 07:06:08;;;;;;;4.77;4.10;;;22.40;99.90;;;;;;5098868;28;20452;-59
2021/06/24 07:08:35;;;;;;;5.17;4.67;;;22.50;99.90;;;;;;5090705;28;20663;-58
2021/06/24 07:11:02;;;;;;;6.97;6.30;;;22.40;99.90;;;;;;5100756;28;20422;-59
2021/06/24 07:13:29;;;;;;;7.00;6.30;;;22.50;99.90;;;;;;5088518;28;20427;-58
2021/06/24 07:15:57;;;;;;;9.70;6.30;;;22.50;99.90;;;;;;5100559;28;20430;-59
2021/06/24 07:18:24;;;;;;;9.73;6.40;;;22.70;99.90;;;;;;5094413;28;20574;-58
2021/06/24 07:20:56;;;;;;;5.23;4.80;;;22.80;99.90;;;;;;5089805;28;20432;-59
2021/06/24 07:23:23;;;;;;;4.83;4.40;;;23.00;99.90;;;;;;5097875;28;20469;-57
2021/06/24 07:25:51;;;;;;;4.57;4.07;;;23.00;99.90;;;;;;5099001;28;20556;-59
2021/06/24 07:28:18;;;;;;;4.70;4.30;;;22.80;99.90;;;;;;5091441;28;20441;-58
2021/06/24 07:30:47;;;;;;;6.43;4.07;;;23.10;99.90;;;;;;5085089;28;20426;-58
2021/06/24 07:33:15;;;;;;;12.30;4.90;;;23.80;99.90;;;;;;5096976;28;20442;-59
2021/06/24 07:35:43;;;;;;;4.37;4.07;;;24.50;99.90;;;;;;5099032;28;20553;-58
2021/06/24 07:38:10;;;;;;;7.40;3.83;;;25.00;99.90;;;;;;5094122;28;20438;-58
2021/06/24 07:40:39;;;;;;;4.83;4.40;;;25.50;99.90;;;;;;5096258;28;20520;-59
2021/06/24 07:43:07;;;;;;;6.10;4.60;;;25.30;99.90;;;;;;5084103;28;20478;-59
2021/06/24 07:45:36;;;;;;;7.70;6.00;;;25.20;99.90;;;;;;5091397;28;20454;-59
2021/06/24 07:48:06;;;;;;;7.50;4.23;;;25.60;99.90;;;;;;5092929;28;20450;-59
2021/06/24 07:50:34;;;;;;;6.03;5.53;;;25.70;99.90;;;;;;5085042;28;20484;-59
2021/06/24 07:53:01;;;;;;;5.43;5.03;;;25.60;99.90;;;;;;5098168;28;20443;-59
2021/06/24 07:55:34;;;;;;;5.80;4.90;;;26.00;99.90;;;;;;5079615;28;20422;-60
2021/06/24 07:58:06;;;;;;;7.03;5.23;;;26.30;99.90;;;;;;5092797;28;20457;-59
2021/06/24 08:00:34;;;;;;;6.23;5.73;;;25.90;99.90;;;;;;5080337;28;20790;-61
2021/06/24 08:03:13;;;;;;;5.50;5.10;;;25.70;99.90;;;;;;5079398;28;20503;-59
2021/06/24 08:05:41;;;;;;;8.17;5.97;;;25.80;99.90;;;;;;5082232;28;20486;-60
2021/06/24 08:08:08;;;;;;;6.10;5.50;;;25.80;99.90;;;;;;5097386;28;20488;-60
2021/06/24 08:10:36;;;;;;;5.40;5.00;;;26.10;99.90;;;;;;5085906;28;20703;-60
2021/06/24 08:13:03;;;;;;;5.20;4.80;;;26.20;99.90;;;;;;5088530;28;20407;-59
2021/06/24 08:15:30;;;;;;;8.47;6.23;;;26.20;99.90;;;;;;5087769;28;20453;-59
2021/06/24 08:17:58;;;;;;;5.83;5.33;;;25.90;99.90;;;;;;5089060;28;20445;-59
2021/06/24 08:20:25;;;;;;;5.93;5.33;;;26.20;99.90;;;;;;5092993;28;20782;-59
2021/06/24 08:22:53;;;;;;;6.87;5.77;;;25.70;99.90;;;;;;5094902;28;20473;-59
2021/06/24 08:25:21;;;;;;;9.43;8.53;;;25.60;99.90;;;;;;5090172;28;20520;-60
2021/06/24 08:27:51;;;;;;;6.60;5.73;;;25.00;99.90;;;;;;5096702;28;20523;-60
2021/06/24 08:30:21;;;;;;;5.80;5.40;;;25.40;99.90;;;;;;5089157;28;20453;-60
2021/06/24 08:32:48;;;;;;;8.80;8.00;;;25.90;99.90;;;;;;5087939;28;20416;-60
2021/06/24 08:35:18;;;;;;;7.83;6.80;;;26.30;99.90;;;;;;5082739;28;20415;-60
2021/06/24 08:37:47;;;;;;;5.90;5.40;;;26.30;99.90;;;;;;5089008;28;20781;-59
2021/06/24 08:40:15;;;;;;;5.70;5.10;;;25.80;99.90;;;;;;5095554;28;20417;-60
2021/06/24 08:42:43;;;;;;;10.20;9.30;;;25.30;99.90;;;;;;5091187;28;20418;-59
2021/06/24 08:45:13;;;;;;;12.10;9.90;;;25.20;99.90;;;;;;5092201;28;20471;-61
2021/06/24 08:47:44;;;;;;;7.33;6.73;;;25.80;99.90;;;;;;5096698;28;20520;-60
2021/06/24 08:50:12;;;;;;;6.47;5.87;;;25.90;99.90;;;;;;5094828;28;20455;-61
2021/06/24 08:52:41;;;;;;;7.80;7.00;;;26.20;99.90;;;;;;5097146;28;20450;-62
2021/06/24 08:55:08;;;;;;;7.00;6.40;;;26.90;99.90;;;;;;5094316;28;20440;-60
2021/06/24 08:57:35;;;;;;;7.17;6.57;;;27.30;99.90;;;;;;5095757;28;20484;-60
2021/06/24 09:00:05;;;;;;;7.03;6.33;;;27.30;99.90;;;;;;5096844;28;20492;-60
2021/06/24 09:02:44;;;;;;;8.17;6.90;;;27.70;99.90;;;;;;5095172;28;20422;-61
2021/06/24 09:05:14;;;;;;;6.70;6.23;;;28.40;99.90;;;;;;5094721;28;20440;-60
2021/06/24 09:07:55;;;;;;;7.63;6.40;;;31.10;99.10;;;;;;5096140;28;20494;-60
2021/06/24 09:10:24;;;;;;;8.60;8.10;;;34.70;92.40;;;;;;5096991;28;20448;-62
2021/06/24 09:12:55;;;;;;;10.40;9.70;;;38.60;78.20;;;;;;5096264;28;20488;-62
2021/06/24 09:15:25;;;;;;;10.40;9.83;;;37.90;70.50;;;;;;5092205;28;20444;-61
2021/06/24 09:17:52;;;;;;;10.37;9.77;;;33.70;81.90;;;;;;5095020;28;20504;-60
2021/06/24 09:20:29;;;;;;;10.80;10.10;;;32.40;87.70;;;;;;5096628;28;20470;-62
2021/06/24 09:23:20;;;;;;;10.33;9.63;;;31.00;91.20;;;;;;5086132;28;20804;-61
2021/06/24 09:26:11;;;;;;;10.40;9.70;;;29.20;95.80;;;;;;5092413;28;20467;-61
2021/06/24 09:28:45;;;;;;;9.57;9.07;;;29.90;96.00;;;;;;5085011;28;20439;-61
2021/06/24 09:31:36;;;;;;;10.50;9.80;;;30.70;95.10;;;;;;5096691;28;20435;-62
2021/06/24 09:34:13;;;;;;;9.53;9.03;;;31.70;92.40;;;;;;5090392;28;20427;-60
2021/06/24 09:36:48;;;;;;;11.27;9.93;;;32.00;92.30;;;;;;5081291;28;20774;-60
2021/06/24 09:39:56;;;;;;;10.67;10.07;;;32.00;91.70;;;;;;5077162;28;20794;-61
2021/06/24 09:42:41;;;;;;;10.40;9.80;;;30.60;93.20;;;;;;5079394;28;20493;-61
2021/06/24 09:45:14;;;;;;;10.80;10.00;;;29.60;96.70;;;;;;5080742;28;20413;-61
2021/06/24 09:48:09;;;;;;;10.63;9.80;;;28.50;97.40;;;;;;5077223;28;20617;-61
2021/06/24 09:50:40;;;;;;;9.20;8.50;;;27.60;97.40;;;;;;5081738;28;20777;-62
2021/06/24 09:53:15;;;;;;;8.80;8.10;;;27.30;99.90;;;;;;5085028;28;20762;-61
2021/06/24 09:55:52;;;;;;;8.80;7.87;;;27.00;99.90;;;;;;5091668;28;20474;-61
2021/06/24 09:58:31;;;;;;;9.83;9.10;;;26.50;99.90;;;;;;5090219;28;20435;-62
2021/06/24 10:01:06;;;;;;;9.57;8.87;;;26.20;99.90;;;;;;5094587;28;20446;-62
2021/06/24 10:03:36;;;;;;;9.00;8.23;;;25.70;99.90;;;;;;5082426;28;20443;-63
2021/06/24 10:06:04;;;;;;;8.87;8.10;;;25.60;99.90;;;;;;5092058;28;20475;-61
2021/06/24 10:08:32;;;;;;;7.83;7.33;;;25.80;99.90;;;;;;5082266;28;20433;-62
2021/06/24 10:10:59;;;;;;;9.70;8.80;;;26.10;99.90;;;;;;5086942;28;20480;-60
2021/06/24 10:13:29;;;;;;;8.27;7.57;;;26.70;99.90;;;;;;5087621;28;20503;-61
2021/06/24 10:15:59;;;;;;;8.40;7.67;;;26.40;99.90;;;;;;5088495;28;20439;-61
2021/06/24 10:18:27;;;;;;;7.93;7.33;;;27.50;99.90;;;;;;5080179;28;20447;-60
2021/06/24 10:20:55;;;;;;;8.80;7.10;;;26.90;99.90;;;;;;5090890;28;20485;-61
2021/06/24 10:23:23;;;;;;;7.60;7.00;;;26.60;99.90;;;;;;5098273;28;20455;-60
2021/06/24 10:25:51;;;;;;;7.40;7.00;;;27.10;99.90;;;;;;5087855;28;20404;-62
2021/06/24 10:28:19;;;;;;;7.00;6.60;;;27.40;99.90;;;;;;5088479;28;20666;-61
2021/06/24 10:30:46;;;;;;;7.07;6.60;;;27.90;99.90;;;;;;5082399;28;20440;-60
2021/06/24 10:33:16;;;;;;;7.07;6.60;;;28.40;99.90;;;;;;5089171;28;20471;-61
2021/06/24 10:35:58;;;;;;;7.37;6.87;;;28.70;99.90;;;;;;5095238;28;20452;-61
2021/06/24 10:38:41;;;;;;;7.27;6.77;;;28.90;99.90;;;;;;5092545;28;20589;-61
2021/06/24 10:41:09;;;;;;;7.63;7.13;;;28.60;99.90;;;;;;5083213;28;20450;-60
2021/06/24 10:43:47;;;;;;;8.33;7.83;;;28.90;99.90;;;;;;5090439;28;20438;-59
2021/06/24 10:46:18;;;;;;;8.60;7.10;;;28.70;99.90;;;;;;5076356;28;20648;-60
2021/06/24 10:48:45;;;;;;;8.90;8.30;;;28.50;99.90;;;;;;5093698;28;20422;-62
2021/06/24 10:51:14;;;;;;;8.47;7.97;;;28.10;99.90;;;;;;5087622;28;20634;-62
2021/06/24 10:53:54;;;;;;;9.97;9.17;;;27.80;99.90;;;;;;5083174;28;20490;-60
2021/06/24 10:56:28;;;;;;;9.30;8.60;;;27.00;99.90;;;;;;5095152;28;20443;-60
2021/06/24 10:58:57;;;;;;;7.87;7.37;;;27.10;99.90;;;;;;5090506;28;20414;-62
2021/06/24 11:01:43;;;;;;;7.57;7.17;;;27.30;99.90;;;;;;5077090;28;20449;-60
2021/06/24 11:04:49;;;;;;;8.90;8.30;;;27.40;99.90;;;;;;5077599;28;20438;-61
2021/06/24 11:07:32;;;;;;;8.40;7.83;;;27.10;99.90;;;;;;5026854;28;20482;-60
2021/06/24 11:10:20;;;;;;;8.60;8.00;;;27.00;99.90;;;;;;5030537;28;20450;-60
2021/06/24 11:12:54;;;;;;;7.67;7.17;;;27.30;99.90;;;;;;5075103;28;20422;-60
2021/06/24 11:15:40;;;;;;;8.20;7.70;;;27.20;99.90;;;;;;5092074;28;20469;-62
2021/06/24 11:18:07;;;;;;;7.97;7.30;;;26.70;99.90;;;;;;5089278;28;20637;-61
2021/06/24 11:20:49;;;;;;;8.20;7.70;;;26.80;99.90;;;;;;5093278;28;20854;-62
2021/06/24 11:23:36;;;;;;;8.07;7.37;;;27.30;99.90;;;;;;5078710;28;20829;-61
2021/06/24 11:26:12;;;;;;;10.77;7.07;;;27.80;99.90;;;;;;5089922;28;20449;-61
2021/06/24 11:28:48;;;;;;;8.43;7.70;;;28.10;99.90;;;;;;5087275;28;20773;-62
2021/06/24 11:31:17;;;;;;;8.47;7.77;;;28.30;99.90;;;;;;5095085;28;20446;-61
2021/06/24 11:34:07;;;;;;;7.97;7.47;;;28.40;99.90;;;;;;5080870;28;20993;-61
2021/06/24 11:36:34;;;;;;;8.10;7.53;;;28.30;99.90;;;;;;5090995;28;20628;-60
2021/06/24 11:39:04;;;;;;;9.37;8.57;;;28.30;99.00;;;;;;5077073;28;20463;-60
2021/06/24 11:41:31;;;;;;;8.30;7.90;;;28.40;99.20;;;;;;5090817;28;20493;-61
2021/06/24 11:44:01;;;;;;;8.77;8.03;;;28.50;98.90;;;;;;5090685;28;20441;-61
2021/06/24 11:46:30;;;;;;;8.10;7.60;;;28.50;98.80;;;;;;5092516;28;20485;-60
2021/06/24 12:00:34;;;;;;;9.07;8.47;;;27.90;99.50;;;;;;5098887;28;20831;-60
2021/06/24 12:03:09;;;;;;;8.73;8.23;;;27.60;99.40;;;;;;5097666;28;20504;-60
2021/06/24 12:05:37;;;;;;;8.70;8.30;;;27.60;98.70;;;;;;5089206;28;20503;-60
2021/06/24 12:08:05;;;;;;;9.17;8.57;;;27.40;99.10;;;;;;5095373;28;20473;-61
2021/06/24 12:10:32;;;;;;;7.70;7.30;;;27.20;99.90;;;;;;5099436;28;20687;-61
2021/06/24 12:12:59;;;;;;;8.67;8.27;;;27.40;99.90;;;;;;5094618;28;20649;-61
2021/06/24 12:15:27;;;;;;;8.70;8.20;;;27.60;98.70;;;;;;5098732;28;20455;-61
2021/06/24 12:17:55;;;;;;;12.23;9.30;;;27.70;98.60;;;;;;5095447;28;20456;-61
2021/06/24 12:20:23;;;;;;;8.43;7.93;;;27.20;98.10;;;;;;5096576;28;20733;-61
2021/06/24 12:23:13;;;;;;;9.33;8.60;;;26.50;99.90;;;;;;5089641;28;20470;-60
2021/06/24 12:25:43;;;;;;;8.43;7.83;;;26.50;99.90;;;;;;5097419;28;20401;-61
2021/06/24 12:28:12;;;;;;;9.07;8.57;;;26.70;99.90;;;;;;5091359;28;20887;-61
2021/06/24 12:30:41;;;;;;;8.93;8.33;;;26.80;99.90;;;;;;5096151;28;20596;-61
2021/06/24 12:33:13;;;;;;;7.97;7.40;;;27.00;99.90;;;;;;5097569;28;20415;-61
2021/06/24 12:35:47;;;;;;;8.53;7.93;;;27.20;99.90;;;;;;5084918;28;20806;-62
2021/06/24 12:38:18;;;;;;;9.00;8.20;;;27.70;99.10;;;;;;5080147;28;20449;-60
2021/06/24 12:40:49;;;;;;;8.70;8.00;;;28.20;98.40;;;;;;5088598;28;20448;-61
2021/06/24 12:43:19;;;;;;;9.10;8.57;;;28.80;97.10;;;;;;5085126;28;20492;-61
2021/06/24 12:45:49;;;;;;;8.93;8.33;;;28.80;97.30;;;;;;5087413;28;20960;-60
2021/06/24 12:48:35;;;;;;;9.23;8.60;;;28.90;96.80;;;;;;5096530;28;20520;-61
2021/06/24 12:51:04;;;;;;;9.07;8.47;;;29.00;97.50;;;;;;5098260;28;20446;-60
2021/06/24 12:53:37;;;;;;;8.33;7.87;;;28.80;95.20;;;;;;5098299;28;20444;-60
2021/06/24 12:56:19;;;;;;;8.30;7.70;;;28.80;96.10;;;;;;5086548;28;20416;-64
2021/06/24 12:58:47;;;;;;;8.20;7.53;;;28.90;96.20;;;;;;5096561;28;20641;-60
2021/06/24 13:01:17;;;;;;;8.07;7.67;;;29.20;95.60;;;;;;5091744;28;20410;-60
2021/06/24 13:03:49;;;;;;;8.27;7.80;;;29.10;95.60;;;;;;5087270;28;20489;-60
2021/06/24 13:06:22;;;;;;;8.43;7.97;;;29.00;95.30;;;;;;5082972;28;20462;-60
2021/06/24 13:08:58;;;;;;;7.80;7.40;;;28.80;95.70;;;;;;5094495;28;21006;-60